Observation data for Ralls on 12/09/2018      Previous  Date       Current Mesonet Observations  Soil Data  Daily Summary Page  Observations in Plain Language
KRLS 090600Z 29003KT M08/M10 A303 RMK A01 T10791097  RH  087%=      5-min Rain = 0
KRLS 090605Z 29005KT M08/M10 A303 RMK A01 T10801097  RH  087%=      5-min Rain = 0
KRLS 090610Z 29005KT M08/M10 A303 RMK A01 T10781096  RH  087%=      5-min Rain = 0
KRLS 090615Z 29006KT M08/M10 A303 RMK A01 T10801097  RH  087%=      5-min Rain = 0
KRLS 090620Z 30004KT M08/M10 A303 RMK A01 T10801098  RH  087%=      5-min Rain = 0
KRLS 090625Z 29006KT M08/M10 A303 RMK A01 T10791097  RH  087%=      5-min Rain = 0
KRLS 090630Z 29006KT M08/M10 A303 RMK A01 T10781096  RH  087%=      5-min Rain = 0
KRLS 090635Z 29005KT M08/M10 A303 RMK A01 T10801098  RH  087%=      5-min Rain = 0
KRLS 090640Z 30004KT M08/M10 A303 RMK A01 T10771095  RH  087%=      5-min Rain = 0
KRLS 090645Z 30005KT M08/M09 A303 RMK A01 T10751092  RH  087%=      5-min Rain = 0
KRLS 090650Z 31004KT M08/M10 A303 RMK A01 T10781096  RH  087%=      5-min Rain = 0
KRLS 090655Z 31004KT M07/M09 A303 RMK A01 T10741090  RH  087%=      5-min Rain = 0
KRLS 090700Z 30004KT M08/M09 A303 RMK A01 T10751092  RH  087%=      5-min Rain = 0
KRLS 090705Z 31005KT M08/M09 A303 RMK A01 T10751092  RH  087%=      5-min Rain = 0
KRLS 090710Z 31004KT M07/M09 A303 RMK A01 T10741092  RH  087%=      5-min Rain = 0
KRLS 090715Z 31004KT M08/M09 A303 RMK A01 T10751092  RH  087%=      5-min Rain = 0
KRLS 090720Z 31005KT M08/M09 A303 RMK A01 T10751093  RH  087%=      5-min Rain = 0
KRLS 090725Z 31004KT M08/M09 A303 RMK A01 T10761093  RH  087%=      5-min Rain = 0
KRLS 090730Z 31004KT M08/M09 A303 RMK A01 T10761093  RH  087%=      5-min Rain = 0
KRLS 090735Z 31005KT M07/M09 A303 RMK A01 T10741091  RH  087%=      5-min Rain = 0
KRLS 090740Z 31006KT M07/M09 A303 RMK A01 T10731090  RH  087%=      5-min Rain = 0
KRLS 090745Z 31006KT M07/M09 A3029 RMK A01 T10741091  RH  087%=      5-min Rain = 0
KRLS 090750Z 31007KT M08/M09 A3029 RMK A01 T10761093  RH  087%=      5-min Rain = 0
KRLS 090755Z 31007KT M08/M09 A3029 RMK A01 T10761094  RH  087%=      5-min Rain = 0
KRLS 090800Z 31006KT M08/M10 A3029 RMK A01 T10771095  RH  087%=      5-min Rain = 0
KRLS 090805Z 30005KT M08/M10 A3029 RMK A01 T10801098  RH  087%=      5-min Rain = 0
KRLS 090810Z 31005KT M08/M10 A3029 RMK A01 T10811099  RH  087%=      5-min Rain = 0
KRLS 090815Z 31006KT M08/M10 A3029 RMK A01 T10811098  RH  087%=      5-min Rain = 0
KRLS 090820Z 31006KT M08/M10 A3029 RMK A01 T10831101  RH  086%=      5-min Rain = 0
KRLS 090825Z 30004KT M08/M10 A3029 RMK A01 T10831101  RH  086%=      5-min Rain = 0
KRLS 090830Z 31005KT M08/M10 A3029 RMK A01 T10841103  RH  086%=      5-min Rain = 0
KRLS 090835Z 31004KT M09/M10 A3029 RMK A01 T10851103  RH  086%=      5-min Rain = 0
KRLS 090840Z 31005KT M09/M10 A3029 RMK A01 T10851104  RH  086%=      5-min Rain = 0
KRLS 090845Z 31005KT M09/M10 A3029 RMK A01 T10851104  RH  086%=      5-min Rain = 0
KRLS 090850Z 30004KT M09/M11 A3029 RMK A01 T10861105  RH  086%=      5-min Rain = 0
KRLS 090855Z 30005KT M09/M11 A3029 RMK A01 T10871106  RH  086%=      5-min Rain = 0
KRLS 090900Z 30005KT M09/M11 A303 RMK A01 T10891108  RH  086%=      5-min Rain = 0
KRLS 090905Z 30005KT M09/M11 A303 RMK A01 T10891108  RH  086%=      5-min Rain = 0
KRLS 090910Z 31005KT M09/M11 A3029 RMK A01 T10881107  RH  086%=      5-min Rain = 0
KRLS 090915Z 31005KT M09/M11 A3029 RMK A01 T10891108  RH  086%=      5-min Rain = 0
KRLS 090920Z 31006KT M09/M11 A3029 RMK A01 T10881107  RH  086%=      5-min Rain = 0
KRLS 090925Z 32006KT M09/M11 A3029 RMK A01 T10881107  RH  086%=      5-min Rain = 0
KRLS 090930Z 32006KT M09/M11 A3029 RMK A01 T10881107  RH  086%=      5-min Rain = 0
KRLS 090935Z 32006KT M09/M10 A3029 RMK A01 T10861104  RH  086%=      5-min Rain = 0
KRLS 090940Z 32006KT M09/M11 A303 RMK A01 T10871106  RH  086%=      5-min Rain = 0
KRLS 090945Z 31006KT M09/M11 A303 RMK A01 T10871106  RH  086%=      5-min Rain = 0
KRLS 090950Z 31006KT M09/M11 A303 RMK A01 T10871106  RH  086%=      5-min Rain = 0
KRLS 090955Z 31007KT M09/M11 A303 RMK A01 T10861105  RH  086%=      5-min Rain = 0
KRLS 091000Z 31007KT M09/M10 A303 RMK A01 T10851104  RH  086%=      5-min Rain = 0
KRLS 091005Z 32006KT M09/M10 A303 RMK A01 T10861104  RH  086%=      5-min Rain = 0
KRLS 091010Z 32005KT M09/M10 A3029 RMK A01 T10851103  RH  086%=      5-min Rain = 0
KRLS 091015Z 32005KT M09/M10 A3029 RMK A01 T10851104  RH  086%=      5-min Rain = 0
KRLS 091020Z 32004KT M09/M11 A3029 RMK A01 T10881107  RH  086%=      5-min Rain = 0
KRLS 091025Z 32005KT M09/M11 A3029 RMK A01 T10901109  RH  086%=      5-min Rain = 0
KRLS 091030Z 31005KT M09/M11 A3029 RMK A01 T10901109  RH  085%=      5-min Rain = 0
KRLS 091035Z 31005KT M09/M11 A3029 RMK A01 T10871106  RH  086%=      5-min Rain = 0
KRLS 091040Z 32004KT M09/M11 A3029 RMK A01 T10871106  RH  086%=      5-min Rain = 0
KRLS 091045Z 32005KT M09/M11 A3029 RMK A01 T10871106  RH  086%=      5-min Rain = 0
KRLS 091050Z 32005KT M08/M10 A3029 RMK A01 T10841102  RH  086%=      5-min Rain = 0
KRLS 091055Z 33005KT M09/M10 A3029 RMK A01 T10851103  RH  086%=      5-min Rain = 0
KRLS 091100Z 33005KT M09/M10 A3029 RMK A01 T10851104  RH  086%=      5-min Rain = 0
KRLS 091105Z 33005KT M09/M11 A3029 RMK A01 T10881107  RH  086%=      5-min Rain = 0
KRLS 091110Z 33004KT M09/M11 A3029 RMK A01 T10891108  RH  086%=      5-min Rain = 0
KRLS 091115Z 33004KT M09/M11 A303 RMK A01 T10881107  RH  086%=      5-min Rain = 0
KRLS 091120Z 33004KT M09/M11 A303 RMK A01 T10881108  RH  086%=      5-min Rain = 0
KRLS 091125Z 33004KT M09/M11 A303 RMK A01 T10881108  RH  086%=      5-min Rain = 0
KRLS 091130Z 33005KT M09/M10 A303 RMK A01 T10851104  RH  086%=      5-min Rain = 0
KRLS 091135Z 34005KT M08/M10 A303 RMK A01 T10801098  RH  087%=      5-min Rain = 0
KRLS 091140Z 34006KT M07/M09 A303 RMK A01 T10711088  RH  088%=      5-min Rain = 0
KRLS 091145Z 34005KT M08/M09 A3031 RMK A01 T10751092  RH  087%=      5-min Rain = 0
KRLS 091150Z 34005KT M08/M09 A3031 RMK A01 T10751093  RH  087%=      5-min Rain = 0
KRLS 091155Z 34005KT M07/M09 A3031 RMK A01 T10741091  RH  087%=      5-min Rain = 0
KRLS 091200Z 35005KT M07/M09 A3031 RMK A01 T10741091  RH  087%=      5-min Rain = 0
KRLS 091205Z 35004KT M08/M09 A3031 RMK A01 T10751093  RH  087%=      5-min Rain = 0
KRLS 091210Z 35004KT M08/M09 A3031 RMK A01 T10761093  RH  087%=      5-min Rain = 0
KRLS 091215Z 35005KT M08/M10 A3031 RMK A01 T10771095  RH  087%=      5-min Rain = 0
KRLS 091220Z 34005KT M08/M10 A3032 RMK A01 T10801098  RH  087%=      5-min Rain = 0
KRLS 091225Z 35005KT M08/M10 A3032 RMK A01 T10791096  RH  087%=      5-min Rain = 0
KRLS 091230Z 35005KT M08/M10 A3032 RMK A01 T10771095  RH  087%=      5-min Rain = 0
KRLS 091235Z 35005KT M07/M09 A3032 RMK A01 T10741091  RH  087%=      5-min Rain = 0
KRLS 091240Z 35005KT M07/M09 A3032 RMK A01 T10741091  RH  087%=      5-min Rain = 0
KRLS 091245Z 35004KT M08/M09 A3032 RMK A01 T10761093  RH  087%=      5-min Rain = 0
KRLS 091250Z 35004KT M08/M09 A3033 RMK A01 T10761094  RH  087%=      5-min Rain = 0
KRLS 091255Z 35005KT M08/M10 A3033 RMK A01 T10771095  RH  087%=      5-min Rain = 0
KRLS 091300Z 34004KT M08/M10 A3033 RMK A01 T10791097  RH  087%=      5-min Rain = 0
KRLS 091305Z 34004KT M08/M10 A3033 RMK A01 T10811099  RH  087%=      5-min Rain = 0
KRLS 091310Z 34004KT M08/M10 A3033 RMK A01 T10831101  RH  086%=      5-min Rain = 0
KRLS 091315Z 34004KT M08/M10 A3033 RMK A01 T10831102  RH  086%=      5-min Rain = 0
KRLS 091320Z 34004KT M09/M10 A3034 RMK A01 T10851104  RH  086%=      5-min Rain = 0
KRLS 091325Z 34003KT M09/M11 A3034 RMK A01 T10871106  RH  086%=      5-min Rain = 0
KRLS 091330Z 33003KT M09/M11 A3034 RMK A01 T10901110  RH  085%=      5-min Rain = 0
KRLS 091335Z 30002KT M09/M11 A3034 RMK A01 T10911111  RH  085%=      5-min Rain = 0
KRLS 091340Z 31002KT M09/M11 A3035 RMK A01 T10931112  RH  085%=      5-min Rain = 0
KRLS 091345Z 31003KT M10/M12 A3035 RMK A01 T10961116  RH  085%=      5-min Rain = 0
KRLS 091350Z 32003KT M10/M12 A3035 RMK A01 T10961117  RH  085%=      5-min Rain = 0
KRLS 091355Z 32003KT M10/M12 A3035 RMK A01 T10981118  RH  084%=      5-min Rain = 0
KRLS 091400Z 33004KT M10/M12 A3035 RMK A01 T10991119  RH  084%=      5-min Rain = 0
KRLS 091405Z 34005KT M09/M11 A3035 RMK A01 T10941114  RH  085%=      5-min Rain = 0
KRLS 091410Z 34005KT M09/M11 A3035 RMK A01 T10911111  RH  085%=      5-min Rain = 0
KRLS 091415Z 34005KT M09/M11 A3035 RMK A01 T10881108  RH  085%=      5-min Rain = 0
KRLS 091420Z 34004KT M08/M10 A3035 RMK A01 T10831103  RH  086%=      5-min Rain = 0
KRLS 091425Z 33003KT M08/M10 A3036 RMK A01 T10791098  RH  086%=      5-min Rain = 0
KRLS 091430Z 33002KT M08/M10 A3036 RMK A01 T10791098  RH  086%=      5-min Rain = 0
KRLS 091435Z 34003KT M08/M10 A3036 RMK A01 T10811100  RH  086%=      5-min Rain = 0
KRLS 091440Z 33004KT M08/M10 A3036 RMK A01 T10801099  RH  086%=      5-min Rain = 0
KRLS 091445Z 33003KT M08/M10 A3036 RMK A01 T10771095  RH  086%=      5-min Rain = 0
KRLS 091450Z 32003KT M08/M10 A3036 RMK A01 T10771095  RH  086%=      5-min Rain = 0
KRLS 091455Z 30002KT M07/M09 A3037 RMK A01 T10731091  RH  087%=      5-min Rain = 0
KRLS 091500Z 31002KT M07/M09 A3037 RMK A01 T10691086  RH  087%=      5-min Rain = 0
KRLS 091505Z 32003KT M07/M09 A3037 RMK A01 T10691087  RH  087%=      5-min Rain = 0
KRLS 091510Z 32003KT M07/M09 A3037 RMK A01 T10711089  RH  087%=      5-min Rain = 0
KRLS 091515Z 32003KT M07/M09 A3038 RMK A01 T10711089  RH  087%=      5-min Rain = 0
KRLS 091520Z 32003KT M07/M09 A3038 RMK A01 T10701087  RH  087%=      5-min Rain = 0
KRLS 091525Z 33002KT M07/M08 A3038 RMK A01 T10651082  RH  088%=      5-min Rain = 0
KRLS 091530Z 34003KT M06/M08 A3038 RMK A01 T10601077  RH  088%=      5-min Rain = 0
KRLS 091535Z 35003KT M05/M07 A3038 RMK A01 T10541070  RH  089%=      5-min Rain = 0
KRLS 091540Z 34002KT M05/M06 A3038 RMK A01 T10481064  RH  089%=      5-min Rain = 0
KRLS 091545Z 34003KT M05/M06 A3039 RMK A01 T10451060  RH  090%=      5-min Rain = 0
KRLS 091550Z 33003KT M04/M06 A3039 RMK A01 T10441058  RH  090%=      5-min Rain = 0
KRLS 091555Z 34003KT M04/M06 A3039 RMK A01 T10431058  RH  090%=      5-min Rain = 0
KRLS 091600Z 33003KT M04/M06 A3039 RMK A01 T10421056  RH  090%=      5-min Rain = 0
KRLS 091605Z 33003KT M04/M05 A3039 RMK A01 T10391053  RH  090%=      5-min Rain = 0
KRLS 091610Z 32003KT M04/M05 A304 RMK A01 T10371050  RH  090%=      5-min Rain = 0
KRLS 091615Z 31002KT M03/M05 A304 RMK A01 T10341047  RH  091%=      5-min Rain = 0
KRLS 091620Z 29002KT M03/M04 A3039 RMK A01 T10311044  RH  091%=      5-min Rain = 0
KRLS 091625Z 29002KT M03/M04 A3039 RMK A01 T10311044  RH  091%=      5-min Rain = 0
KRLS 091630Z 28002KT M03/M04 A3039 RMK A01 T10301043  RH  091%=      5-min Rain = 0
KRLS 091635Z 29001KT M03/M04 A3039 RMK A01 T10251037  RH  092%=      5-min Rain = 0
KRLS 091640Z 28002KT M03/M04 A3039 RMK A01 T10261038  RH  092%=      5-min Rain = 0
KRLS 091645Z 27002KT M03/M04 A3039 RMK A01 T10281040  RH  092%=      5-min Rain = 0
KRLS 091650Z 26003KT M03/M04 A3039 RMK A01 T10311043  RH  091%=      5-min Rain = 0.01
KRLS 091655Z 27004KT M03/M04 A3039 RMK A01 T10311043  RH  091%=      5-min Rain = 0
KRLS 091700Z 27004KT M03/M04 A3039 RMK A01 T10321044  RH  091%=      5-min Rain = 0
KRLS 091705Z 29004KT M03/M04 A3039 RMK A01 T10291042  RH  091%=      5-min Rain = 0
KRLS 091710Z 30004KT M03/M04 A3039 RMK A01 T10251038  RH  092%=      5-min Rain = 0
KRLS 091715Z 29004KT M02/M04 A304 RMK A01 T10231035  RH  092%=      5-min Rain = 0
KRLS 091720Z 28004KT M02/M03 A304 RMK A01 T10211033  RH  092%=      5-min Rain = 0.01
KRLS 091725Z 28004KT M02/M03 A304 RMK A01 T10201033  RH  092%=      5-min Rain = 0
KRLS 091730Z 28003KT M02/M03 A304 RMK A01 T10191031  RH  092%=      5-min Rain = 0
KRLS 091735Z 29003KT M02/M03 A304 RMK A01 T10171029  RH  092%=      5-min Rain = 0.01
KRLS 091740Z 28003KT M02/M03 A3039 RMK A01 T10151027  RH  092%=      5-min Rain = 0
KRLS 091745Z 27003KT M01/M03 A3039 RMK A01 T10131025  RH  092%=      5-min Rain = 0
KRLS 091750Z 28004KT M01/M03 A3039 RMK A01 T10131025  RH  092%=      5-min Rain = 0
KRLS 091755Z 27004KT M01/M02 A3039 RMK A01 T10121024  RH  092%=      5-min Rain = 0
KRLS 091800Z 28004KT M01/M02 A3039 RMK A01 T10111023  RH  092%=      5-min Rain = 0.01
KRLS 091805Z 30004KT M01/M02 A3038 RMK A01 T10091021  RH  092%=      5-min Rain = 0
KRLS 091810Z 30004KT M01/M02 A3038 RMK A01 T10071019  RH  092%=      5-min Rain = 0
KRLS 091815Z 29003KT M01/M02 A3037 RMK A01 T10051017  RH  092%=      5-min Rain = 0
KRLS 091820Z 30003KT M00/M02 A3037 RMK A01 T10021015  RH  092%=      5-min Rain = 0
KRLS 091825Z 31003KT 00/M01 A3037 RMK A01 T00011011  RH  092%=      5-min Rain = 0.01
KRLS 091830Z 30003KT 00/M01 A3036 RMK A01 T00011010  RH  093%=      5-min Rain = 0
KRLS 091835Z 31003KT 00/M01 A3036 RMK A01 T00031009  RH  093%=      5-min Rain = 0
KRLS 091840Z 31003KT 00/M01 A3036 RMK A01 T00031008  RH  093%=      5-min Rain = 0.01
KRLS 091845Z 29003KT 00/M01 A3036 RMK A01 T00041007  RH  093%=      5-min Rain = 0
KRLS 091850Z 29003KT 01/M01 A3036 RMK A01 T00051007  RH  093%=      5-min Rain = 0
KRLS 091855Z 30003KT 01/M01 A3036 RMK A01 T00061006  RH  093%=      5-min Rain = 0.01
KRLS 091900Z 28004KT 01/M01 A3036 RMK A01 T00051007  RH  092%=      5-min Rain = 0
KRLS 091905Z 27004KT 01/M01 A3036 RMK A01 T00051009  RH  092%=      5-min Rain = 0.01
KRLS 091910Z 27005KT 01/M01 A3036 RMK A01 T00051011  RH  090%=      5-min Rain = 0.01
KRLS 091915Z 28005KT 01/M01 A3036 RMK A01 T00071012  RH  088%=      5-min Rain = 0.01
KRLS 091920Z 28004KT 01/M02 A3036 RMK A01 T00101015  RH  084%=      5-min Rain = 0.01
KRLS 091925Z 27004KT 01/M02 A3035 RMK A01 T00121017  RH  082%=      5-min Rain = 0.01
KRLS 091930Z 27004KT 01/M02 A3035 RMK A01 T00131020  RH  079%=      5-min Rain = 0.01
KRLS 091935Z 27004KT 01/M02 A3035 RMK A01 T00141023  RH  077%=      5-min Rain = 0.01
KRLS 091940Z 27004KT 02/M02 A3035 RMK A01 T00161023  RH  076%=      5-min Rain = 0.01
KRLS 091945Z 28005KT 02/M03 A3035 RMK A01 T00171027  RH  073%=      5-min Rain = 0
KRLS 091950Z 28004KT 02/M03 A3035 RMK A01 T00191029  RH  071%=      5-min Rain = 0
KRLS 091955Z 27004KT 02/M03 A3035 RMK A01 T00211030  RH  070%=      5-min Rain = 0
KRLS 092000Z 27005KT 02/M03 A3035 RMK A01 T00221032  RH  068%=      5-min Rain = 0
KRLS 092005Z 27005KT 02/M03 A3035 RMK A01 T00221034  RH  067%=      5-min Rain = 0
KRLS 092010Z 27005KT 02/M03 A3035 RMK A01 T00231034  RH  067%=      5-min Rain = 0
KRLS 092015Z 28004KT 02/M03 A3035 RMK A01 T00241034  RH  066%=      5-min Rain = 0
KRLS 092020Z 28003KT 03/M03 A3035 RMK A01 T00271033  RH  065%=      5-min Rain = 0
KRLS 092025Z 30003KT 03/M04 A3034 RMK A01 T00271035  RH  064%=      5-min Rain = 0
KRLS 092030Z 30003KT 03/M04 A3035 RMK A01 T00261035  RH  065%=      5-min Rain = 0
KRLS 092035Z 29004KT 03/M04 A3035 RMK A01 T00271036  RH  064%=      5-min Rain = 0
KRLS 092040Z 29004KT 03/M04 A3034 RMK A01 T00271036  RH  063%=      5-min Rain = 0
KRLS 092045Z 29003KT 03/M03 A3034 RMK A01 T00281030  RH  066%=      5-min Rain = 0
KRLS 092050Z 30004KT 03/M02 A3034 RMK A01 T00271020  RH  071%=      5-min Rain = 0
KRLS 092055Z 31004KT 03/M03 A3034 RMK A01 T00271025  RH  069%=      5-min Rain = 0
KRLS 092100Z 31004KT 03/M03 A3034 RMK A01 T00271030  RH  067%=      5-min Rain = 0
KRLS 092105Z 31004KT 03/M04 A3035 RMK A01 T00281038  RH  062%=      5-min Rain = 0
KRLS 092110Z 31004KT 03/M04 A3035 RMK A01 T00281041  RH  060%=      5-min Rain = 0
KRLS 092115Z 31004KT 03/M04 A3034 RMK A01 T00291042  RH  060%=      5-min Rain = 0
KRLS 092120Z 32003KT 03/M04 A3034 RMK A01 T00291040  RH  061%=      5-min Rain = 0
KRLS 092125Z 32004KT 03/M04 A3034 RMK A01 T00291041  RH  061%=      5-min Rain = 0
KRLS 092130Z 32004KT 03/M04 A3034 RMK A01 T00291044  RH  059%=      5-min Rain = 0
KRLS 092135Z 31003KT 03/M04 A3034 RMK A01 T00301044  RH  058%=      5-min Rain = 0
KRLS 092140Z 33003KT 03/M04 A3034 RMK A01 T00331043  RH  058%=      5-min Rain = 0
KRLS 092145Z 32003KT 03/M04 A3034 RMK A01 T00321042  RH  059%=      5-min Rain = 0
KRLS 092150Z 31003KT 03/M05 A3035 RMK A01 T00311045  RH  058%=      5-min Rain = 0
KRLS 092155Z 31003KT 03/M05 A3034 RMK A01 T00321046  RH  057%=      5-min Rain = 0
KRLS 092200Z 32003KT 03/M05 A3034 RMK A01 T00311049  RH  056%=      5-min Rain = 0
KRLS 092205Z 33003KT 03/M05 A3034 RMK A01 T00301047  RH  057%=      5-min Rain = 0
KRLS 092210Z 34004KT 03/M05 A3035 RMK A01 T00291045  RH  058%=      5-min Rain = 0
KRLS 092215Z 33004KT 03/M05 A3035 RMK A01 T00251050  RH  058%=      5-min Rain = 0
KRLS 092220Z 32004KT 03/M05 A3034 RMK A01 T00271052  RH  056%=      5-min Rain = 0
KRLS 092225Z 32003KT 03/M05 A3034 RMK A01 T00281051  RH  056%=      5-min Rain = 0
KRLS 092230Z 31003KT 03/M05 A3034 RMK A01 T00271050  RH  057%=      5-min Rain = 0
KRLS 092235Z 27002KT 03/M04 A3035 RMK A01 T00301043  RH  059%=      5-min Rain = 0
KRLS 092240Z 28003KT 03/M04 A3035 RMK A01 T00301042  RH  060%=      5-min Rain = 0
KRLS 092245Z 28003KT 03/M04 A3035 RMK A01 T00251043  RH  061%=      5-min Rain = 0
KRLS 092250Z 28004KT 02/M04 A3035 RMK A01 T00231043  RH  062%=      5-min Rain = 0
KRLS 092255Z 28004KT 02/M04 A3035 RMK A01 T00211042  RH  063%=      5-min Rain = 0
KRLS 092300Z 28003KT 02/M04 A3035 RMK A01 T00201043  RH  063%=      5-min Rain = 0
KRLS 092305Z 28003KT 02/M04 A3035 RMK A01 T00181042  RH  065%=      5-min Rain = 0
KRLS 092310Z 27004KT 02/M04 A3035 RMK A01 T00151044  RH  065%=      5-min Rain = 0
KRLS 092315Z 26003KT 01/M05 A3035 RMK A01 T00101045  RH  067%=      5-min Rain = 0
KRLS 092320Z 27004KT 01/M05 A3035 RMK A01 T00051045  RH  069%=      5-min Rain = 0
KRLS 092325Z 27004KT 00/05 A3035 RMK A01 T00-00-45  RH  072%=      5-min Rain = 0
KRLS 092330Z 28004KT M00/M04 A3035 RMK A01 T10031044  RH  074%=      5-min Rain = 0
KRLS 092335Z 28003KT M00/M04 A3035 RMK A01 T10031043  RH  075%=      5-min Rain = 0
KRLS 092340Z 27003KT M01/M04 A3034 RMK A01 T10061044  RH  076%=      5-min Rain = 0
KRLS 092345Z 26003KT M01/M05 A3034 RMK A01 T10121048  RH  077%=      5-min Rain = 0
KRLS 092350Z 26004KT M02/M05 A3034 RMK A01 T10191052  RH  079%=      5-min Rain = 0
KRLS 092355Z 27004KT M02/M05 A3034 RMK A01 T10241053  RH  081%=      5-min Rain = 0
KRLS 100000Z 27005KT M03/M05 A3034 RMK A01 T10261054  RH  081%=      5-min Rain = 0
KRLS 100005Z 27005KT M02/M05 A3034 RMK A01 T10241052  RH  081%=      5-min Rain = 0
KRLS 100010Z 26006KT M03/M05 A3034 RMK A01 T10261054  RH  081%=      5-min Rain = 0
KRLS 100015Z 26004KT M03/M06 A3034 RMK A01 T10281057  RH  081%=      5-min Rain = 0
KRLS 100020Z 26005KT M03/M06 A3034 RMK A01 T10321060  RH  081%=      5-min Rain = 0
KRLS 100025Z 26005KT M03/M06 A3034 RMK A01 T10311058  RH  082%=      5-min Rain = 0
KRLS 100030Z 26005KT M03/M06 A3034 RMK A01 T10331060  RH  082%=      5-min Rain = 0
KRLS 100035Z 27005KT M04/M06 A3034 RMK A01 T10361062  RH  082%=      5-min Rain = 0
KRLS 100040Z 28006KT M03/M06 A3035 RMK A01 T10331059  RH  083%=      5-min Rain = 0
KRLS 100045Z 28006KT M03/M06 A3035 RMK A01 T10331058  RH  083%=      5-min Rain = 0
KRLS 100050Z 29006KT M03/M06 A3035 RMK A01 T10281055  RH  082%=      5-min Rain = 0
KRLS 100055Z 29005KT M03/M06 A3035 RMK A01 T10291057  RH  081%=      5-min Rain = 0
KRLS 100100Z 28006KT M03/M06 A3035 RMK A01 T10301058  RH  081%=      5-min Rain = 0
KRLS 100105Z 27006KT M03/M06 A3035 RMK A01 T10341062  RH  081%=      5-min Rain = 0
KRLS 100110Z 29006KT M04/M07 A3036 RMK A01 T10391065  RH  082%=      5-min Rain = 0
KRLS 100115Z 29005KT M04/M07 A3036 RMK A01 T10411066  RH  083%=      5-min Rain = 0
KRLS 100120Z 29005KT M04/M06 A3036 RMK A01 T10351058  RH  084%=      5-min Rain = 0
KRLS 100125Z 29005KT M04/M06 A3036 RMK A01 T10351059  RH  084%=      5-min Rain = 0
KRLS 100130Z 29005KT M04/M06 A3036 RMK A01 T10351059  RH  084%=      5-min Rain = 0
KRLS 100135Z 29006KT M04/M06 A3036 RMK A01 T10371061  RH  084%=      5-min Rain = 0
KRLS 100140Z 30005KT M04/M06 A3036 RMK A01 T10381062  RH  083%=      5-min Rain = 0
KRLS 100145Z 30005KT M04/M06 A3036 RMK A01 T10391064  RH  083%=      5-min Rain = 0
KRLS 100150Z 30004KT M04/M07 A3036 RMK A01 T10401065  RH  083%=      5-min Rain = 0
KRLS 100155Z 30006KT M04/M06 A3036 RMK A01 T10351061  RH  082%=      5-min Rain = 0
KRLS 100200Z 30006KT M03/M06 A3036 RMK A01 T10311060  RH  080%=      5-min Rain = 0
KRLS 100205Z 30006KT M03/M07 A3036 RMK A01 T10341065  RH  079%=      5-min Rain = 0
KRLS 100210Z 30006KT M04/M07 A3037 RMK A01 T10391069  RH  080%=      5-min Rain = 0
KRLS 100215Z 30005KT M04/M07 A3037 RMK A01 T10401069  RH  080%=      5-min Rain = 0
KRLS 100220Z 30005KT M04/M07 A3037 RMK A01 T10391069  RH  080%=      5-min Rain = 0
KRLS 100225Z 27004KT M04/M07 A3037 RMK A01 T10421071  RH  080%=      5-min Rain = 0
KRLS 100230Z 28004KT M04/M07 A3037 RMK A01 T10421070  RH  081%=      5-min Rain = 0
KRLS 100235Z 29004KT M05/M07 A3037 RMK A01 T10461073  RH  081%=      5-min Rain = 0
KRLS 100240Z 29005KT M05/M07 A3037 RMK A01 T10481074  RH  082%=      5-min Rain = 0
KRLS 100245Z 29004KT M05/M08 A3037 RMK A01 T10491075  RH  082%=      5-min Rain = 0
KRLS 100250Z 29005KT M05/M08 A3037 RMK A01 T10501075  RH  083%=      5-min Rain = 0
KRLS 100255Z 29005KT M05/M08 A3038 RMK A01 T10501075  RH  083%=      5-min Rain = 0
KRLS 100300Z 29005KT M05/M07 A3037 RMK A01 T10481074  RH  082%=      5-min Rain = 0
KRLS 100305Z 29005KT M05/M07 A3037 RMK A01 T10461073  RH  081%=      5-min Rain = 0
KRLS 100310Z 29006KT M05/M07 A3037 RMK A01 T10451073  RH  081%=      5-min Rain = 0
KRLS 100315Z 28004KT M04/M07 A3037 RMK A01 T10431073  RH  080%=      5-min Rain = 0
KRLS 100320Z 28004KT M04/M07 A3037 RMK A01 T10411071  RH  079%=      5-min Rain = 0
KRLS 100325Z 28004KT M04/M07 A3037 RMK A01 T10411073  RH  078%=      5-min Rain = 0
KRLS 100330Z 29004KT M05/M08 A3037 RMK A01 T10451077  RH  078%=      5-min Rain = 0
KRLS 100335Z 29005KT M05/M08 A3037 RMK A01 T10451077  RH  078%=      5-min Rain = 0
KRLS 100340Z 28005KT M04/M08 A3037 RMK A01 T10441076  RH  078%=      5-min Rain = 0
KRLS 100345Z 29004KT M04/M08 A3037 RMK A01 T10441078  RH  077%=      5-min Rain = 0
KRLS 100350Z 29005KT M04/M08 A3037 RMK A01 T10431076  RH  077%=      5-min Rain = 0
KRLS 100355Z 30005KT M04/M08 A3038 RMK A01 T10421075  RH  077%=      5-min Rain = 0
KRLS 100400Z 30004KT M04/M07 A3038 RMK A01 T10391074  RH  077%=      5-min Rain = 0
KRLS 100405Z 29005KT M04/M08 A3038 RMK A01 T10401075  RH  077%=      5-min Rain = 0
KRLS 100410Z 30006KT M04/M08 A3038 RMK A01 T10411076  RH  076%=      5-min Rain = 0
KRLS 100415Z 29006KT M04/M08 A3038 RMK A01 T10431077  RH  077%=      5-min Rain = 0
KRLS 100420Z 29004KT M04/M08 A3038 RMK A01 T10441078  RH  077%=      5-min Rain = 0
KRLS 100425Z 28005KT M05/M08 A3038 RMK A01 T10461078  RH  078%=      5-min Rain = 0
KRLS 100430Z 28006KT M05/M08 A3038 RMK A01 T10461078  RH  078%=      5-min Rain = 0
KRLS 100435Z 28005KT M05/M08 A3038 RMK A01 T10471078  RH  079%=      5-min Rain = 0
KRLS 100440Z 28005KT M05/M08 A3038 RMK A01 T10491080  RH  079%=      5-min Rain = 0
KRLS 100445Z 28005KT M05/M08 A3038 RMK A01 T10511081  RH  079%=      5-min Rain = 0
KRLS 100450Z 28006KT M05/M08 A3038 RMK A01 T10521081  RH  080%=      5-min Rain = 0
KRLS 100455Z 28006KT M05/M08 A3038 RMK A01 T10511080  RH  080%=      5-min Rain = 0
KRLS 100500Z 29005KT M05/M08 A3038 RMK A01 T10521081  RH  080%=      5-min Rain = 0
KRLS 100505Z 30006KT M05/M08 A3038 RMK A01 T10511080  RH  080%=      5-min Rain = 0
KRLS 100510Z 30006KT M05/M08 A3038 RMK A01 T10491079  RH  079%=      5-min Rain = 0
KRLS 100515Z 29005KT M05/M08 A3038 RMK A01 T10501080  RH  079%=      5-min Rain = 0
KRLS 100520Z 30006KT M05/M08 A3038 RMK A01 T10481078  RH  079%=      5-min Rain = 0
KRLS 100525Z 30007KT M04/M07 A3038 RMK A01 T10421073  RH  079%=      5-min Rain = 0
KRLS 100530Z 31007KT M04/M07 A3038 RMK A01 T10371071  RH  077%=      5-min Rain = 0
KRLS 100535Z 30007KT M04/M07 A3037 RMK A01 T10361071  RH  077%=      5-min Rain = 0
KRLS 100540Z 28006KT M04/M07 A3037 RMK A01 T10371073  RH  076%=      5-min Rain = 0
KRLS 100545Z 28007KT M04/M07 A3037 RMK A01 T10391074  RH  077%=      5-min Rain = 0
KRLS 100550Z 29008KT M04/M08 A3037 RMK A01 T10421077  RH  077%=      5-min Rain = 0
KRLS 100555Z 29005KT M05/M08 A3037 RMK A01 T10451079  RH  077%=      5-min Rain = 0

Page generated in 0.0087 seconds.